createdAt,value
2017-12-16T00:02:18.485Z,18.98
2017-12-16T00:04:46.746Z,19.50
2017-12-16T00:07:15.077Z,19.70
2017-12-16T00:09:43.344Z,18.90
2017-12-16T00:12:11.705Z,16.80
2017-12-16T00:14:40.016Z,18.12
2017-12-16T00:17:08.291Z,19.02
2017-12-16T00:19:36.597Z,18.10
2017-12-16T00:22:04.858Z,17.17
2017-12-16T00:24:34.146Z,17.70
2017-12-16T00:27:02.498Z,19.43
2017-12-16T00:29:31.598Z,18.77
2017-12-16T00:31:59.895Z,16.73
2017-12-16T00:34:28.273Z,17.42
2017-12-16T00:36:56.671Z,17.60
2017-12-16T00:39:25.010Z,18.10
2017-12-16T00:41:53.270Z,16.93
2017-12-16T00:44:21.585Z,17.58
2017-12-16T00:46:49.862Z,17.87
2017-12-16T00:49:18.150Z,18.27
2017-12-16T00:51:46.435Z,17.27
2017-12-16T00:54:14.720Z,20.53
2017-12-16T00:56:43.003Z,15.90
2017-12-16T00:59:11.316Z,17.47
2017-12-16T01:01:39.616Z,19.12
2017-12-16T01:04:07.913Z,17.67
2017-12-16T01:06:36.974Z,17.80
2017-12-16T01:09:05.302Z,16.65
2017-12-16T01:11:34.391Z,19.30
2017-12-16T01:14:02.675Z,17.02
2017-12-16T01:16:31.054Z,15.88
2017-12-16T01:18:59.364Z,20.40
2017-12-16T01:21:27.697Z,18.73
2017-12-16T01:23:56.014Z,17.37
2017-12-16T01:26:24.377Z,19.13
2017-12-16T01:28:53.468Z,18.63
2017-12-16T01:31:21.788Z,19.65
2017-12-16T01:37:10.055Z,19.67
2017-12-16T01:39:37.521Z,18.35
2017-12-16T01:42:05.019Z,17.63
2017-12-16T01:44:33.255Z,18.85
2017-12-16T01:47:00.706Z,17.10
2017-12-16T01:49:28.173Z,17.45
2017-12-16T01:51:55.625Z,15.30
2017-12-16T01:54:23.098Z,16.83
2017-12-16T01:56:50.564Z,15.50
2017-12-16T01:59:18.026Z,14.68
2017-12-16T02:01:45.488Z,16.27
2017-12-16T02:04:13.714Z,17.83
2017-12-16T02:06:41.175Z,18.20
2017-12-16T02:09:08.653Z,17.45
2017-12-16T02:11:36.098Z,18.20
2017-12-16T02:14:03.556Z,16.00
2017-12-16T02:16:31.019Z,15.02
2017-12-16T02:18:58.494Z,15.20
2017-12-16T02:21:25.937Z,14.00
2017-12-16T02:23:53.414Z,13.40
2017-12-16T02:26:21.644Z,12.98
2017-12-16T02:28:49.111Z,12.63
2017-12-16T02:31:16.573Z,12.87
2017-12-16T02:33:44.041Z,15.25
2017-12-16T02:36:11.503Z,13.60
2017-12-16T02:38:38.961Z,14.45
2017-12-16T02:41:06.409Z,13.77
2017-12-16T02:43:33.861Z,13.40
2017-12-16T02:46:01.325Z,14.07
2017-12-16T02:48:28.794Z,15.40
2017-12-16T02:50:56.238Z,15.57
2017-12-16T02:53:23.702Z,14.40
2017-12-16T02:55:51.162Z,15.70
2017-12-16T02:58:18.641Z,17.45
2017-12-16T03:00:46.873Z,17.00
2017-12-16T03:03:14.327Z,18.77
2017-12-16T03:05:41.790Z,17.10
2017-12-16T03:08:09.246Z,16.77
2017-12-16T03:10:36.706Z,16.40
2017-12-16T03:13:04.152Z,15.77
2017-12-16T03:15:31.641Z,18.20
2017-12-16T03:17:59.101Z,17.90
2017-12-16T03:20:26.548Z,16.70
2017-12-16T03:22:54.011Z,18.20
2017-12-16T03:25:21.470Z,19.43
2017-12-16T03:27:49.693Z,20.10
2017-12-16T03:30:17.159Z,20.10
2017-12-16T03:32:44.634Z,20.45
2017-12-16T03:35:12.089Z,22.13
2017-12-16T03:37:39.551Z,20.00
2017-12-16T03:40:07.001Z,22.80
2017-12-16T03:42:34.462Z,23.55
2017-12-16T03:45:01.928Z,23.38
2017-12-16T03:47:29.385Z,25.40
2017-12-16T03:49:56.849Z,24.87
2017-12-16T03:52:24.308Z,23.30
2017-12-16T03:54:52.543Z,23.95
2017-12-16T03:57:19.995Z,25.37
2017-12-16T03:59:47.458Z,23.70
2017-12-16T04:02:14.918Z,22.75
2017-12-16T04:04:42.633Z,24.57
2017-12-16T04:07:10.082Z,23.05
2017-12-16T04:09:37.551Z,21.70
2017-12-16T04:12:05.763Z,24.12
2017-12-16T04:14:33.271Z,24.67
2017-12-16T04:17:00.729Z,25.87
2017-12-16T04:19:28.956Z,22.67
2017-12-16T04:21:56.432Z,22.80
2017-12-16T04:24:23.894Z,24.50
2017-12-16T04:26:51.367Z,21.77
2017-12-16T04:29:18.818Z,23.57
2017-12-16T04:31:46.296Z,22.42
2017-12-16T04:34:14.527Z,23.15
2017-12-16T04:36:41.988Z,21.15
2017-12-16T04:39:09.455Z,25.55
2017-12-16T04:41:36.922Z,20.73
2017-12-16T04:44:04.379Z,26.23
2017-12-16T04:46:31.873Z,21.27
2017-12-16T04:48:59.324Z,23.50
2017-12-16T04:51:26.790Z,23.10
2017-12-16T04:53:54.255Z,21.65
2017-12-16T04:56:21.718Z,22.15
2017-12-16T04:58:49.196Z,25.48
2017-12-16T05:01:16.648Z,29.43
2017-12-16T05:03:44.111Z,26.00
2017-12-16T05:06:11.573Z,29.07
2017-12-16T05:08:39.052Z,34.70
2017-12-16T05:11:06.514Z,85.85
2017-12-16T05:13:34.800Z,62.05
2017-12-16T05:16:02.272Z,37.03
2017-12-16T05:18:29.731Z,50.40
2017-12-16T05:20:57.199Z,32.27
2017-12-16T05:23:24.654Z,25.67
2017-12-16T05:25:52.122Z,26.33
2017-12-16T05:28:19.576Z,26.00
2017-12-16T05:30:47.045Z,26.80
2017-12-16T05:33:14.490Z,25.03
2017-12-16T05:35:41.965Z,29.63
2017-12-16T05:38:09.884Z,24.87
2017-12-16T05:40:37.347Z,27.27
2017-12-16T05:43:04.796Z,28.23
2017-12-16T05:45:32.264Z,30.05
2017-12-16T05:47:59.713Z,27.65
2017-12-16T05:50:27.169Z,31.08
2017-12-16T05:52:54.629Z,32.38
2017-12-16T05:55:22.099Z,29.42
2017-12-16T05:57:49.549Z,28.23
2017-12-16T06:00:17.028Z,28.12
2017-12-16T06:02:44.480Z,30.20
2017-12-16T06:05:11.953Z,35.30
2017-12-16T06:07:39.415Z,30.77
2017-12-16T06:10:06.910Z,26.77
2017-12-16T06:12:34.353Z,29.35
2017-12-16T06:15:01.845Z,26.35
2017-12-16T06:17:29.309Z,34.92
2017-12-16T06:19:56.773Z,31.70
2017-12-16T06:22:24.240Z,30.43
2017-12-16T06:24:51.696Z,27.85
2017-12-16T06:27:19.161Z,26.00
2017-12-16T06:29:46.629Z,24.17
2017-12-16T06:32:14.087Z,23.75
2017-12-16T06:34:41.550Z,23.92
2017-12-16T06:37:09.017Z,24.60
2017-12-16T06:39:36.480Z,21.20
2017-12-16T06:42:03.943Z,22.80
2017-12-16T06:44:32.160Z,23.67
2017-12-16T06:46:59.608Z,23.60
2017-12-16T06:49:27.078Z,25.02
2017-12-16T06:51:54.539Z,24.20
2017-12-16T06:54:22.002Z,25.23
2017-12-16T06:56:49.455Z,21.25
2017-12-16T06:59:16.923Z,20.50
2017-12-16T07:01:44.383Z,21.90
2017-12-16T07:04:11.844Z,18.50
2017-12-16T07:06:39.307Z,19.52
2017-12-16T07:09:06.762Z,14.90
2017-12-16T07:11:34.236Z,15.18
2017-12-16T07:14:01.694Z,13.10
2017-12-16T07:16:29.931Z,12.85
2017-12-16T07:18:57.377Z,12.27
2017-12-16T07:21:24.897Z,14.07
2017-12-16T07:23:52.281Z,11.75
2017-12-16T07:26:19.746Z,12.95
2017-12-16T07:28:47.192Z,10.32
2017-12-16T07:31:14.683Z,11.98
2017-12-16T07:33:42.153Z,11.43
2017-12-16T07:36:09.617Z,11.30
2017-12-16T07:38:37.071Z,11.00
2017-12-16T07:41:04.534Z,9.40
2017-12-16T07:43:31.982Z,9.27
2017-12-16T07:45:59.432Z,8.65
2017-12-16T07:48:26.893Z,10.35
2017-12-16T07:50:54.355Z,11.35
2017-12-16T07:53:21.814Z,10.13
2017-12-16T07:55:49.261Z,11.00
2017-12-16T07:58:16.726Z,10.18
2017-12-16T08:00:46.790Z,11.90
2017-12-16T08:03:14.321Z,12.48
2017-12-16T08:05:41.791Z,13.35
2017-12-16T08:08:09.272Z,12.98
2017-12-16T08:10:36.758Z,12.88
2017-12-16T08:13:04.258Z,14.32
2017-12-16T08:15:31.716Z,13.13
2017-12-16T08:17:59.945Z,14.80
2017-12-16T08:20:27.412Z,18.35
2017-12-16T08:22:54.883Z,17.25
2017-12-16T08:25:22.368Z,19.30
2017-12-16T08:27:49.848Z,18.48
2017-12-16T08:30:17.333Z,19.83
2017-12-16T08:32:44.789Z,16.08
2017-12-16T08:35:12.283Z,11.10
2017-12-16T08:37:40.515Z,10.82
2017-12-16T08:40:07.970Z,9.57
2017-12-16T08:42:35.429Z,8.98
2017-12-16T08:45:02.896Z,10.20
2017-12-16T08:47:30.366Z,8.82
2017-12-16T08:49:57.873Z,7.95
2017-12-16T08:52:25.319Z,7.53
2017-12-16T08:54:52.809Z,8.65
2017-12-16T08:57:20.278Z,9.07
2017-12-16T08:59:47.762Z,8.55
2017-12-16T09:02:15.237Z,5.35
2017-12-16T09:04:43.483Z,6.50
2017-12-16T09:07:11.019Z,5.72
2017-12-16T09:09:38.500Z,6.55
2017-12-16T09:12:06.030Z,3.95
2017-12-16T09:14:33.555Z,4.50
2017-12-16T09:17:01.097Z,4.20
2017-12-16T09:19:28.600Z,3.80
2017-12-16T09:21:56.120Z,2.53
2017-12-16T09:24:23.693Z,3.63
2017-12-16T09:26:51.163Z,4.10
2017-12-16T09:29:18.630Z,4.20
2017-12-16T09:31:46.134Z,2.77
2017-12-16T09:34:14.416Z,2.30
2017-12-16T09:36:42.646Z,4.40
2017-12-16T09:39:10.154Z,3.67
2017-12-16T09:41:37.648Z,3.63
2017-12-16T09:44:05.140Z,4.80
2017-12-16T09:46:32.672Z,4.37
2017-12-16T09:49:00.151Z,4.27
2017-12-16T09:51:27.685Z,4.73
2017-12-16T09:53:55.144Z,4.17
2017-12-16T09:56:22.610Z,4.03
2017-12-16T09:58:50.073Z,5.63
2017-12-16T10:01:17.606Z,4.30
2017-12-16T10:03:46.010Z,5.40
2017-12-16T10:06:13.627Z,5.30
2017-12-16T10:08:41.094Z,5.13
2017-12-16T10:11:08.606Z,5.30
2017-12-16T10:13:35.982Z,5.70
2017-12-16T10:16:04.198Z,5.10
2017-12-16T10:18:31.635Z,6.20
2017-12-16T10:20:59.093Z,5.67
2017-12-16T10:23:26.549Z,5.30
2017-12-16T10:25:54.021Z,6.23
2017-12-16T10:28:21.470Z,6.00
2017-12-16T10:30:49.245Z,5.90
2017-12-16T10:33:16.727Z,5.80
2017-12-16T10:35:44.221Z,5.97
2017-12-16T10:38:12.421Z,5.40
2017-12-16T10:40:39.872Z,5.87
2017-12-16T10:43:07.318Z,6.47
2017-12-16T10:45:34.765Z,5.87
2017-12-16T10:48:02.968Z,6.37
2017-12-16T10:50:30.440Z,5.70
2017-12-16T10:52:57.878Z,6.03
2017-12-16T10:55:25.322Z,6.20
2017-12-16T10:57:52.772Z,6.23
2017-12-16T11:00:20.238Z,6.37
2017-12-16T11:02:47.679Z,5.50
2017-12-16T11:05:15.133Z,5.43
2017-12-16T11:07:43.354Z,6.43
2017-12-16T11:10:10.862Z,6.10
2017-12-16T11:12:38.344Z,5.47
2017-12-16T11:15:05.928Z,6.53
2017-12-16T11:17:33.457Z,6.43
2017-12-16T11:20:00.981Z,6.03
2017-12-16T11:22:28.467Z,5.30
2017-12-16T11:24:56.693Z,6.20
2017-12-16T11:27:24.146Z,5.27
2017-12-16T11:29:51.575Z,5.07
2017-12-16T11:32:19.027Z,5.07
2017-12-16T11:34:46.468Z,6.53
2017-12-16T11:37:13.974Z,5.60
2017-12-16T11:39:41.363Z,6.47
2017-12-16T11:42:09.578Z,4.80
2017-12-16T11:44:37.029Z,7.20
2017-12-16T11:47:04.523Z,6.63
2017-12-16T11:49:32.116Z,7.10
2017-12-16T11:52:00.398Z,7.63
2017-12-16T11:54:27.935Z,7.80
2017-12-16T11:56:55.463Z,6.67
2017-12-16T11:59:23.724Z,7.97
2017-12-16T12:01:51.221Z,6.93
2017-12-16T12:04:18.717Z,7.97
2017-12-16T12:06:46.215Z,8.47
2017-12-16T12:09:13.703Z,7.60
2017-12-16T12:11:41.194Z,8.37
2017-12-16T12:14:08.706Z,6.87
2017-12-16T12:16:36.267Z,8.20
2017-12-16T12:19:03.748Z,7.43
2017-12-16T12:21:32.005Z,8.37
2017-12-16T12:23:59.492Z,7.47
2017-12-16T12:26:27.019Z,7.80
2017-12-16T12:28:55.278Z,10.27
2017-12-16T12:31:22.788Z,9.57
2017-12-16T12:33:50.282Z,7.37
2017-12-16T12:36:17.786Z,8.67
2017-12-16T12:38:46.107Z,9.10
2017-12-16T12:41:13.617Z,8.70
2017-12-16T12:43:41.113Z,8.70
2017-12-16T12:46:08.615Z,8.63
2017-12-16T12:48:36.115Z,8.63
2017-12-16T12:51:03.665Z,9.70
2017-12-16T12:53:31.103Z,7.20
2017-12-16T12:55:59.394Z,9.23
2017-12-16T12:58:27.656Z,9.13
2017-12-16T13:00:55.146Z,7.90
2017-12-16T13:03:22.680Z,8.83
2017-12-16T13:05:50.948Z,8.87
2017-12-16T13:08:19.228Z,10.10
2017-12-16T13:10:47.514Z,7.90
2017-12-16T13:13:15.778Z,9.27
2017-12-16T13:15:44.063Z,10.70
2017-12-16T13:18:12.355Z,9.57
2017-12-16T13:20:39.878Z,8.83
2017-12-16T13:23:07.363Z,10.07
2017-12-16T13:25:34.886Z,10.23
2017-12-16T13:28:02.400Z,7.43
2017-12-16T13:30:29.906Z,8.90
2017-12-16T13:32:57.416Z,10.30
2017-12-16T13:35:24.950Z,11.23
2017-12-16T13:37:52.474Z,11.47
2017-12-16T13:40:19.995Z,11.53
2017-12-16T13:42:47.506Z,10.90
2017-12-16T13:45:15.812Z,11.20
2017-12-16T13:47:44.041Z,12.13
2017-12-16T13:50:11.539Z,10.73
2017-12-16T13:52:39.053Z,9.20
2017-12-16T13:55:06.534Z,11.97
2017-12-16T13:57:34.042Z,10.40
2017-12-16T14:00:01.539Z,9.43
2017-12-16T14:02:29.798Z,9.20
2017-12-16T14:04:57.286Z,10.40
2017-12-16T14:07:24.810Z,10.50
2017-12-16T14:09:52.316Z,10.63
2017-12-16T14:12:19.798Z,8.73
2017-12-16T14:14:47.299Z,8.87
2017-12-16T14:17:14.818Z,9.37
2017-12-16T14:19:42.487Z,9.10
2017-12-16T14:22:10.019Z,10.47
2017-12-16T14:24:37.553Z,10.80
2017-12-16T14:27:05.823Z,8.70
2017-12-16T14:29:34.083Z,9.93
2017-12-16T14:32:02.368Z,10.47
2017-12-16T14:34:30.725Z,11.10
2017-12-16T14:36:58.220Z,11.60
2017-12-16T14:39:25.742Z,12.47
2017-12-16T14:41:53.303Z,11.10
2017-12-16T14:44:20.792Z,10.38
2017-12-16T14:46:49.059Z,12.27
2017-12-16T14:49:16.597Z,12.70
2017-12-16T14:51:44.086Z,10.63
2017-12-16T14:54:12.390Z,12.17
2017-12-16T14:56:39.881Z,10.30
2017-12-16T14:59:07.418Z,10.50
2017-12-16T15:01:34.939Z,12.70
2017-12-16T15:04:03.224Z,13.13
2017-12-16T15:06:30.726Z,11.83
2017-12-16T15:08:58.226Z,13.07
2017-12-16T15:11:26.482Z,10.83
2017-12-16T15:13:53.977Z,12.50
2017-12-16T15:16:21.470Z,12.77
2017-12-16T15:18:49.010Z,12.03
2017-12-16T15:21:16.503Z,12.23
2017-12-16T15:23:43.994Z,11.63
2017-12-16T15:26:11.518Z,13.30
2017-12-16T15:28:39.043Z,14.97
2017-12-16T15:31:06.542Z,12.47
2017-12-16T15:33:34.055Z,14.45
2017-12-16T15:36:01.560Z,13.20
2017-12-16T15:38:29.871Z,13.55
2017-12-16T15:40:57.392Z,13.62
2017-12-16T15:43:25.690Z,12.43
2017-12-16T15:45:53.188Z,15.10
2017-12-16T15:48:20.685Z,15.77
2017-12-16T15:50:48.210Z,13.63
2017-12-16T15:53:15.732Z,14.35
2017-12-16T15:55:43.233Z,14.18
2017-12-16T15:58:11.495Z,14.33
2017-12-16T16:00:38.989Z,13.77
2017-12-16T16:03:06.561Z,12.90
2017-12-16T16:05:34.089Z,14.63
2017-12-16T16:08:02.416Z,11.63
2017-12-16T16:10:29.965Z,12.65
2017-12-16T16:12:58.310Z,13.40
2017-12-16T16:15:25.824Z,14.10
2017-12-16T16:17:53.359Z,14.10
2017-12-16T16:20:20.866Z,13.95
2017-12-16T16:22:48.376Z,12.83
2017-12-16T16:25:15.911Z,12.65
2017-12-16T16:27:43.448Z,14.45
2017-12-16T16:30:10.954Z,15.07
2017-12-16T16:32:38.481Z,14.43
2017-12-16T16:35:06.056Z,15.02
2017-12-16T16:37:34.400Z,13.03
2017-12-16T16:40:01.969Z,7.80
2017-12-16T16:42:29.524Z,11.73
2017-12-16T16:44:57.034Z,12.50
2017-12-16T16:47:24.530Z,10.98
2017-12-16T16:49:51.993Z,12.95
2017-12-16T16:52:19.460Z,11.50
2017-12-16T16:54:46.958Z,11.18
2017-12-16T16:57:14.441Z,11.48
2017-12-16T16:59:41.929Z,6.97
2017-12-16T17:02:09.433Z,6.80
2017-12-16T17:04:36.994Z,12.48
2017-12-16T17:07:04.487Z,10.20
2017-12-16T17:09:31.992Z,10.00
2017-12-16T17:12:00.227Z,11.40
2017-12-16T17:14:27.768Z,9.63
2017-12-16T17:16:55.253Z,7.22
2017-12-16T17:19:22.832Z,10.57
2017-12-16T17:21:50.364Z,9.60
2017-12-16T17:24:17.871Z,8.55
2017-12-16T17:26:45.348Z,9.40
2017-12-16T17:29:12.928Z,9.77
2017-12-16T17:31:40.476Z,10.25
2017-12-16T17:34:08.044Z,9.98
2017-12-16T17:36:35.578Z,8.65
2017-12-16T17:39:03.092Z,9.07
2017-12-16T17:41:30.592Z,8.80
2017-12-16T17:43:58.145Z,9.95
2017-12-16T17:46:25.680Z,9.20
2017-12-16T17:48:53.950Z,8.57
2017-12-16T17:51:22.243Z,9.57
2017-12-16T17:53:50.526Z,9.65
2017-12-16T17:56:18.031Z,8.93
2017-12-16T17:58:45.577Z,9.95
2017-12-16T18:01:13.153Z,7.60
2017-12-16T18:03:40.722Z,6.30
2017-12-16T18:06:08.248Z,8.75
2017-12-16T18:08:35.751Z,9.45
2017-12-16T18:11:04.070Z,8.82
2017-12-16T18:13:31.576Z,9.57
2017-12-16T18:15:59.130Z,12.13
2017-12-16T18:18:26.620Z,8.85
2017-12-16T18:20:54.884Z,5.18
2017-12-16T18:23:23.189Z,8.35
2017-12-16T18:25:50.779Z,7.20
2017-12-16T18:28:19.091Z,6.37
2017-12-16T18:30:46.652Z,8.38
2017-12-16T18:33:14.973Z,8.05
2017-12-16T18:35:42.550Z,9.13
2017-12-16T18:38:10.278Z,6.85
2017-12-16T18:40:37.790Z,6.50
2017-12-16T18:43:05.329Z,8.00
2017-12-16T18:45:32.851Z,5.97
2017-12-16T18:48:00.385Z,7.25
2017-12-16T18:50:28.684Z,5.10
2017-12-16T18:52:56.215Z,7.10
2017-12-16T18:55:23.731Z,5.80
2017-12-16T18:57:51.219Z,5.32
2017-12-16T19:00:18.770Z,6.95
2017-12-16T19:02:46.317Z,6.40
2017-12-16T19:05:13.851Z,6.78
2017-12-16T19:07:41.331Z,6.25
2017-12-16T19:10:08.830Z,4.43
2017-12-16T19:12:37.144Z,8.20
2017-12-16T19:15:04.706Z,5.10
2017-12-16T19:17:32.214Z,5.95
2017-12-16T19:19:59.769Z,4.40
2017-12-16T19:22:27.322Z,5.30
2017-12-16T19:24:54.887Z,5.80
2017-12-16T19:27:22.453Z,5.25
2017-12-16T19:29:49.968Z,5.47
2017-12-16T19:32:17.488Z,4.35
2017-12-16T19:34:45.038Z,4.12
2017-12-16T19:37:13.362Z,4.28
2017-12-16T19:39:41.564Z,4.90
2017-12-16T19:42:09.133Z,5.25
2017-12-16T19:44:36.669Z,3.80
2017-12-16T19:47:04.295Z,4.80
2017-12-16T19:49:31.841Z,3.85
2017-12-16T19:51:59.402Z,5.18
2017-12-16T19:54:26.951Z,4.30
2017-12-16T19:56:54.488Z,4.32
2017-12-16T19:59:22.043Z,4.32
2017-12-16T20:01:49.590Z,3.83
2017-12-16T20:04:17.167Z,5.00
2017-12-16T20:06:45.450Z,4.68
2017-12-16T20:09:13.752Z,4.50
2017-12-16T20:11:41.314Z,4.05
2017-12-16T20:14:08.855Z,2.17
2017-12-16T20:16:37.158Z,4.20
2017-12-16T20:19:04.707Z,4.00
2017-12-16T20:21:32.252Z,3.87
2017-12-16T20:24:00.511Z,4.62
2017-12-16T20:26:28.823Z,4.28
2017-12-16T20:28:56.341Z,4.43
2017-12-16T20:31:23.929Z,4.87
2017-12-16T20:33:51.447Z,5.30
2017-12-16T20:36:19.782Z,4.20
2017-12-16T20:38:47.335Z,4.07
2017-12-16T20:41:14.893Z,3.72
2017-12-16T20:43:42.420Z,4.22
2017-12-16T20:46:10.826Z,4.50
2017-12-16T20:48:38.374Z,4.78
2017-12-16T20:51:05.913Z,3.65
2017-12-16T20:53:33.450Z,4.68
2017-12-16T20:56:01.036Z,4.32
2017-12-16T20:58:28.565Z,4.37
2017-12-16T21:00:56.107Z,4.20
2017-12-16T21:03:23.660Z,5.53
2017-12-16T21:05:51.218Z,4.15
2017-12-16T21:08:18.755Z,4.63
2017-12-16T21:10:46.307Z,6.60
2017-12-16T21:13:13.877Z,4.72
2017-12-16T21:15:41.410Z,5.50
2017-12-16T21:18:08.991Z,5.50
2017-12-16T21:20:36.542Z,4.85
2017-12-16T21:23:04.096Z,5.50
2017-12-16T21:25:32.433Z,5.87
2017-12-16T21:28:00.004Z,5.53
2017-12-16T21:30:27.549Z,6.57
2017-12-16T21:32:55.182Z,6.60
2017-12-16T21:35:22.742Z,5.93
2017-12-16T21:37:50.309Z,5.47
2017-12-16T21:40:17.849Z,6.47
2017-12-16T21:42:45.394Z,4.90
2017-12-16T21:45:12.931Z,4.93
2017-12-16T21:47:40.506Z,5.47
2017-12-16T21:50:08.826Z,7.07
2017-12-16T21:52:36.386Z,5.57
2017-12-16T21:55:03.905Z,5.62
2017-12-16T21:57:31.462Z,5.70
2017-12-16T21:59:59.014Z,3.10
2017-12-16T22:02:27.366Z,4.80
2017-12-16T22:04:54.901Z,6.00
2017-12-16T22:07:22.458Z,5.90
2017-12-16T22:09:50.024Z,5.63
2017-12-16T22:12:17.561Z,6.25
2017-12-16T22:14:45.109Z,5.87
2017-12-16T22:17:12.639Z,5.65
2017-12-16T22:19:40.959Z,6.55
2017-12-16T22:22:08.516Z,3.30
2017-12-16T22:24:36.060Z,5.65
2017-12-16T22:27:03.580Z,6.55
2017-12-16T22:29:31.120Z,5.85
2017-12-16T22:31:58.673Z,6.85
2017-12-16T22:34:26.231Z,7.20
2017-12-16T22:36:53.778Z,6.15
2017-12-16T22:39:22.075Z,5.20
2017-12-16T22:41:49.625Z,5.75
2017-12-16T22:44:17.208Z,10.02
2017-12-16T22:46:44.769Z,7.18
2017-12-16T22:49:13.102Z,7.37
2017-12-16T22:51:40.652Z,6.97
2017-12-16T22:54:08.226Z,6.45
2017-12-16T22:56:35.758Z,5.62
2017-12-16T22:59:03.347Z,7.00
2017-12-16T23:01:30.897Z,5.47
2017-12-16T23:03:58.464Z,4.82
2017-12-16T23:06:25.977Z,6.40
2017-12-16T23:08:54.272Z,6.22
2017-12-16T23:11:21.812Z,6.25
2017-12-16T23:13:50.062Z,6.12
2017-12-16T23:16:17.597Z,5.97
2017-12-16T23:18:45.930Z,7.57
2017-12-16T23:21:13.590Z,5.90
2017-12-16T23:23:41.120Z,4.97
2017-12-16T23:26:08.710Z,8.07
2017-12-16T23:28:36.262Z,4.50
2017-12-16T23:31:03.808Z,7.72
2017-12-16T23:33:32.132Z,5.53
2017-12-16T23:35:59.702Z,7.20
2017-12-16T23:38:27.279Z,6.45
2017-12-16T23:40:54.835Z,6.35
2017-12-16T23:43:22.446Z,8.25
2017-12-16T23:45:49.944Z,5.07
2017-12-16T23:48:17.512Z,7.28
2017-12-16T23:50:45.039Z,7.05
2017-12-16T23:53:12.543Z,6.53
2017-12-16T23:55:40.067Z,6.30
2017-12-16T23:58:08.303Z,6.57
